Time;durP1;ratioP1;P1;durP2;ratioP2;P2;SDS_P1;SDS_P2;PMS_P1;PMS_P2;Temp;Humidity;BMP_temperature;BMP_pressure;BME280_temperature;BME280_humidity;BME280_pressure;Samples;Min_cycle;Max_cycle;Signal;HPM_P1;HPM_P2
2021/03/30 00:00:47;;;;;;;11.73;5.80;;;;;;;;;;5021824;28;20050;-62
2021/03/30 00:03:15;;;;;;;15.63;5.25;;;;;;;;;;5027007;28;20134;-62
2021/03/30 00:05:42;;;;;;;13.18;5.57;;;;;;;;;;5030290;28;20087;-62
2021/03/30 00:08:09;;;;;;;15.57;5.38;;;;;;;;;;5031465;28;20049;-61
2021/03/30 00:10:38;;;;;;;15.50;5.40;;;;;;;;;;5029050;28;20053;-62
2021/03/30 00:13:06;;;;;;;11.35;4.88;;;;;;;;;;5030963;28;20364;-62
2021/03/30 00:15:34;;;;;;;12.05;4.75;;;;;;;;;;5028936;28;20064;-61
2021/03/30 00:18:01;;;;;;;12.75;5.65;;;;;;;;;;5030087;28;20137;-61
2021/03/30 00:20:29;;;;;;;13.35;5.25;;;;;;;;;;5030009;28;20052;-62
2021/03/30 00:22:56;;;;;;;15.85;5.10;;;;;;;;;;5031041;28;20073;-61
2021/03/30 00:25:23;;;;;;;18.23;5.00;;;;;;;;;;5029740;28;20042;-62
2021/03/30 00:27:52;;;;;;;11.95;4.75;;;;;;;;;;5030687;28;20376;-61
2021/03/30 00:30:19;;;;;;;15.85;5.90;;;;;;;;;;5030506;28;20041;-61
2021/03/30 00:32:47;;;;;;;10.02;4.68;;;;;;;;;;5030841;28;20045;-61
2021/03/30 00:35:15;;;;;;;10.35;4.85;;;;;;;;;;5030481;28;20076;-62
2021/03/30 00:37:43;;;;;;;11.52;5.22;;;;;;;;;;5030234;28;20041;-61
2021/03/30 00:40:11;;;;;;;12.95;4.63;;;;;;;;;;5028821;28;20429;-60
2021/03/30 00:42:39;;;;;;;11.90;5.32;;;;;;;;;;5020764;28;20057;-62
2021/03/30 00:45:09;;;;;;;12.55;5.07;;;;;;;;;;5031226;28;20045;-62
2021/03/30 00:47:38;;;;;;;9.60;4.60;;;;;;;;;;5030060;28;20156;-63
2021/03/30 00:50:07;;;;;;;11.98;4.70;;;;;;;;;;5030450;28;20547;-62
2021/03/30 00:52:37;;;;;;;11.57;4.60;;;;;;;;;;5030121;28;20103;-61
2021/03/30 00:55:05;;;;;;;16.13;5.10;;;;;;;;;;5030207;28;20064;-61
2021/03/30 00:57:32;;;;;;;13.02;5.05;;;;;;;;;;5029210;28;20139;-60
2021/03/30 01:00:00;;;;;;;11.95;4.90;;;;;;;;;;5028407;28;20435;-61
2021/03/30 01:02:28;;;;;;;13.23;4.75;;;;;;;;;;5026327;28;20077;-61
2021/03/30 01:04:56;;;;;;;13.18;5.15;;;;;;;;;;5021577;28;20045;-61
2021/03/30 01:07:24;;;;;;;12.90;4.82;;;;;;;;;;5026363;28;20138;-62
2021/03/30 01:09:54;;;;;;;13.73;4.45;;;;;;;;;;5025611;28;20049;-61
2021/03/30 01:12:31;;;;;;;14.10;5.15;;;;;;;;;;5028137;28;20059;-61
2021/03/30 01:15:04;;;;;;;11.85;4.38;;;;;;;;;;5026993;28;20038;-60
2021/03/30 01:17:37;;;;;;;8.40;4.50;;;;;;;;;;5027304;28;20116;-60
2021/03/30 01:20:26;;;;;;;9.18;4.32;;;;;;;;;;5027516;28;20456;-60
2021/03/30 01:23:08;;;;;;;6.57;3.80;;;;;;;;;;5027376;28;20133;-61
2021/03/30 01:25:37;;;;;;;8.23;3.80;;;;;;;;;;5014967;28;20049;-61
2021/03/30 01:28:08;;;;;;;7.38;4.63;;;;;;;;;;5025973;28;20057;-61
2021/03/30 01:30:37;;;;;;;11.23;4.03;;;;;;;;;;5027535;28;20037;-61
2021/03/30 01:33:08;;;;;;;10.77;4.47;;;;;;;;;;5027316;28;20053;-60
2021/03/30 01:35:36;;;;;;;6.68;3.75;;;;;;;;;;5026793;28;20449;-61
2021/03/30 01:38:03;;;;;;;7.78;4.18;;;;;;;;;;5026575;28;20049;-61
2021/03/30 01:40:32;;;;;;;7.85;3.78;;;;;;;;;;5027429;28;20132;-61
2021/03/30 01:43:01;;;;;;;8.52;4.43;;;;;;;;;;5025694;28;20049;-60
2021/03/30 01:45:29;;;;;;;8.73;3.97;;;;;;;;;;5019824;28;20137;-61
2021/03/30 01:47:58;;;;;;;9.65;4.18;;;;;;;;;;5026610;28;20148;-60
2021/03/30 01:50:27;;;;;;;8.15;4.40;;;;;;;;;;5025339;28;20479;-61
2021/03/30 01:52:54;;;;;;;7.68;3.67;;;;;;;;;;5026293;28;20537;-61
2021/03/30 01:55:21;;;;;;;5.90;3.45;;;;;;;;;;5026914;28;20144;-61
2021/03/30 01:57:51;;;;;;;9.60;3.90;;;;;;;;;;5026033;28;20046;-60
2021/03/30 02:00:21;;;;;;;10.20;3.67;;;;;;;;;;5025855;28;20053;-61
2021/03/30 02:02:49;;;;;;;12.18;3.92;;;;;;;;;;5026396;28;20136;-60
2021/03/30 02:05:17;;;;;;;7.90;3.72;;;;;;;;;;5026493;28;20076;-60
2021/03/30 02:07:45;;;;;;;9.75;3.90;;;;;;;;;;5025168;28;20049;-60
2021/03/30 02:10:16;;;;;;;10.60;4.07;;;;;;;;;;5025847;28;20046;-61
2021/03/30 02:12:45;;;;;;;12.02;3.80;;;;;;;;;;5020723;28;20549;-62
2021/03/30 02:15:13;;;;;;;10.73;4.15;;;;;;;;;;5026066;28;20045;-61
2021/03/30 02:17:44;;;;;;;8.30;3.28;;;;;;;;;;5023665;28;20509;-61
2021/03/30 02:20:13;;;;;;;6.03;3.53;;;;;;;;;;5025500;28;20268;-61
2021/03/30 02:22:45;;;;;;;5.18;3.13;;;;;;;;;;5025778;28;20171;-60
2021/03/30 02:25:13;;;;;;;8.65;3.85;;;;;;;;;;5026135;28;20049;-60
2021/03/30 02:27:41;;;;;;;9.98;3.03;;;;;;;;;;5025751;28;20073;-60
2021/03/30 02:30:09;;;;;;;8.50;3.58;;;;;;;;;;5025282;28;20128;-60
2021/03/30 02:32:39;;;;;;;8.85;3.67;;;;;;;;;;5026212;28;20057;-61
2021/03/30 02:35:07;;;;;;;7.72;3.30;;;;;;;;;;5025813;28;20073;-61
2021/03/30 02:37:34;;;;;;;10.85;3.47;;;;;;;;;;5025700;28;20590;-61
2021/03/30 02:40:06;;;;;;;10.60;3.70;;;;;;;;;;5025533;28;20045;-60
2021/03/30 02:42:35;;;;;;;9.52;4.18;;;;;;;;;;5026257;28;20049;-61
2021/03/30 02:45:03;;;;;;;10.55;3.42;;;;;;;;;;5025191;28;20045;-61
2021/03/30 02:47:32;;;;;;;5.80;3.30;;;;;;;;;;5024807;28;20552;-61
2021/03/30 02:50:01;;;;;;;9.63;3.83;;;;;;;;;;5024878;28;20547;-61
2021/03/30 02:52:28;;;;;;;7.15;3.58;;;;;;;;;;5007934;28;20141;-61
2021/03/30 02:54:57;;;;;;;7.75;3.80;;;;;;;;;;5025556;28;20049;-61
2021/03/30 02:57:25;;;;;;;11.13;3.90;;;;;;;;;;5024479;28;20111;-61
2021/03/30 02:59:54;;;;;;;8.32;3.47;;;;;;;;;;5024569;28;20041;-61
2021/03/30 03:02:22;;;;;;;8.70;3.75;;;;;;;;;;5025741;28;20049;-61
2021/03/30 03:04:49;;;;;;;10.07;3.40;;;;;;;;;;5025411;28;20095;-61
2021/03/30 03:07:18;;;;;;;7.03;3.67;;;;;;;;;;5024787;28;20401;-61
2021/03/30 03:09:45;;;;;;;6.43;3.40;;;;;;;;;;5024196;28;20049;-61
2021/03/30 03:12:14;;;;;;;11.25;3.65;;;;;;;;;;5025217;28;20422;-61
2021/03/30 03:14:43;;;;;;;8.70;3.88;;;;;;;;;;5025388;28;20132;-61
2021/03/30 03:17:11;;;;;;;9.23;3.55;;;;;;;;;;5024742;28;20123;-61
2021/03/30 03:19:38;;;;;;;6.38;3.33;;;;;;;;;;5025101;28;20057;-61
2021/03/30 03:22:06;;;;;;;6.15;3.10;;;;;;;;;;5025490;28;20124;-61
2021/03/30 03:24:33;;;;;;;7.70;3.42;;;;;;;;;;5024931;28;20128;-61
2021/03/30 03:27:01;;;;;;;9.60;3.20;;;;;;;;;;5024599;28;20164;-62
2021/03/30 03:29:30;;;;;;;10.75;3.10;;;;;;;;;;5024716;28;20537;-61
2021/03/30 03:31:58;;;;;;;6.47;3.40;;;;;;;;;;5025035;28;20493;-61
2021/03/30 03:34:26;;;;;;;7.10;3.38;;;;;;;;;;5024878;28;20572;-62
2021/03/30 03:36:53;;;;;;;9.98;3.22;;;;;;;;;;5025492;28;20136;-62
2021/03/30 03:39:20;;;;;;;6.60;3.70;;;;;;;;;;5023918;28;20148;-61
2021/03/30 03:41:48;;;;;;;11.70;3.50;;;;;;;;;;5025190;28;20056;-61
2021/03/30 03:44:15;;;;;;;7.20;4.05;;;;;;;;;;5024575;28;20492;-61
2021/03/30 03:46:42;;;;;;;8.23;3.20;;;;;;;;;;5025253;28;20052;-61
2021/03/30 03:49:11;;;;;;;13.82;4.30;;;;;;;;;;5023702;28;20073;-61
2021/03/30 03:51:40;;;;;;;18.13;4.10;;;;;;;;;;5024625;28;20054;-61
2021/03/30 03:54:08;;;;;;;8.13;3.25;;;;;;;;;;5023328;28;20448;-61
2021/03/30 03:56:37;;;;;;;15.80;3.88;;;;;;;;;;5016649;28;20049;-61
2021/03/30 03:59:07;;;;;;;8.68;3.30;;;;;;;;;;5016781;28;20478;-61
2021/03/30 04:01:38;;;;;;;15.15;3.33;;;;;;;;;;5023959;28;20081;-61
2021/03/30 04:04:08;;;;;;;15.02;3.70;;;;;;;;;;5023329;28;20150;-61
2021/03/30 04:06:40;;;;;;;10.30;3.40;;;;;;;;;;5025163;28;20049;-61
2021/03/30 04:09:10;;;;;;;12.27;3.70;;;;;;;;;;5024944;28;20437;-61
2021/03/30 04:11:38;;;;;;;12.45;3.72;;;;;;;;;;5024964;28;20056;-62
2021/03/30 04:14:05;;;;;;;10.32;3.88;;;;;;;;;;5024719;28;20069;-61
2021/03/30 04:16:33;;;;;;;7.68;3.30;;;;;;;;;;5020861;28;20852;-62
2021/03/30 04:19:00;;;;;;;9.10;3.50;;;;;;;;;;5019871;28;20462;-61
2021/03/30 04:21:30;;;;;;;7.47;3.10;;;;;;;;;;5020167;28;20631;-61
2021/03/30 04:23:58;;;;;;;10.82;4.20;;;;;;;;;;5023233;28;20064;-61
2021/03/30 04:26:26;;;;;;;4.80;3.00;;;;;;;;;;5024065;28;20077;-61
2021/03/30 04:28:53;;;;;;;11.60;3.80;;;;;;;;;;5027276;28;20038;-61
2021/03/30 04:31:20;;;;;;;8.82;3.30;;;;;;;;;;5027439;28;20097;-61
2021/03/30 04:33:48;;;;;;;7.50;3.40;;;;;;;;;;5027321;28;20049;-60
2021/03/30 04:36:15;;;;;;;7.10;3.15;;;;;;;;;;5026570;28;20346;-60
2021/03/30 04:38:42;;;;;;;8.27;3.17;;;;;;;;;;5026480;28;20053;-61
2021/03/30 04:41:12;;;;;;;12.57;4.03;;;;;;;;;;5028172;28;20132;-61
2021/03/30 04:43:39;;;;;;;9.60;3.70;;;;;;;;;;5026747;28;20045;-61
2021/03/30 04:46:07;;;;;;;11.15;4.03;;;;;;;;;;5028130;28;20132;-62
2021/03/30 04:48:34;;;;;;;13.90;3.78;;;;;;;;;;5026367;28;20124;-61
2021/03/30 04:51:02;;;;;;;12.75;3.78;;;;;;;;;;5027839;28;20049;-62
2021/03/30 04:53:29;;;;;;;12.18;4.03;;;;;;;;;;5027496;28;20053;-61
2021/03/30 04:55:57;;;;;;;10.18;4.05;;;;;;;;;;5022722;28;20886;-60
2021/03/30 04:58:25;;;;;;;11.43;4.85;;;;;;;;;;5028450;28;20146;-62
2021/03/30 05:00:53;;;;;;;12.02;3.38;;;;;;;;;;5028046;28;20092;-62
2021/03/30 05:03:20;;;;;;;6.32;3.17;;;;;;;;;;5028103;28;20093;-62
2021/03/30 05:05:48;;;;;;;9.82;3.63;;;;;;;;;;5028215;28;20085;-62
2021/03/30 05:08:16;;;;;;;7.28;3.10;;;;;;;;;;5023684;28;20056;-61
2021/03/30 05:10:43;;;;;;;10.18;4.38;;;;;;;;;;5028369;28;20481;-63
2021/03/30 05:13:10;;;;;;;12.63;3.45;;;;;;;;;;5028042;28;20525;-61
2021/03/30 05:15:39;;;;;;;10.43;3.50;;;;;;;;;;5027934;28;20489;-62
2021/03/30 05:18:06;;;;;;;10.40;3.50;;;;;;;;;;5027055;28;20128;-61
2021/03/30 05:20:33;;;;;;;13.75;4.03;;;;;;;;;;5027771;28;20128;-61
2021/03/30 05:23:01;;;;;;;16.83;3.90;;;;;;;;;;5027615;28;20215;-61
2021/03/30 05:25:28;;;;;;;7.47;3.90;;;;;;;;;;5027232;28;20088;-61
2021/03/30 05:28:02;;;;;;;12.38;3.38;;;;;;;;;;5026081;28;20497;-63
2021/03/30 05:30:29;;;;;;;13.35;3.97;;;;;;;;;;5025307;28;20475;-62
2021/03/30 05:32:58;;;;;;;17.25;4.40;;;;;;;;;;5027035;28;20409;-60
2021/03/30 05:35:25;;;;;;;16.40;4.47;;;;;;;;;;5026848;28;20041;-60
2021/03/30 05:37:53;;;;;;;20.30;4.63;;;;;;;;;;5024823;28;20050;-61
2021/03/30 05:40:21;;;;;;;15.18;3.92;;;;;;;;;;5025404;28;20148;-61
2021/03/30 05:42:49;;;;;;;12.38;4.13;;;;;;;;;;5021858;28;20336;-61
2021/03/30 05:45:18;;;;;;;14.43;4.00;;;;;;;;;;5014220;28;20071;-61
2021/03/30 05:47:46;;;;;;;10.77;4.35;;;;;;;;;;5022530;28;20107;-61
2021/03/30 05:50:15;;;;;;;21.10;5.30;;;;;;;;;;5014576;28;20045;-62
2021/03/30 05:52:46;;;;;;;16.17;5.03;;;;;;;;;;5014717;28;20057;-62
2021/03/30 05:55:18;;;;;;;16.13;5.20;;;;;;;;;;5023254;28;20101;-61
2021/03/30 05:57:45;;;;;;;8.63;4.15;;;;;;;;;;5017163;28;20216;-61
2021/03/30 06:00:13;;;;;;;18.98;4.55;;;;;;;;;;5016161;28;20540;-62
2021/03/30 06:02:42;;;;;;;16.08;5.18;;;;;;;;;;5013097;28;20535;-61
2021/03/30 06:05:13;;;;;;;11.43;4.78;;;;;;;;;;5017279;28;20136;-61
2021/03/30 06:07:41;;;;;;;9.90;4.18;;;;;;;;;;5015831;28;20348;-61
2021/03/30 06:10:10;;;;;;;21.90;4.45;;;;;;;;;;5006481;28;20057;-61
2021/03/30 06:12:37;;;;;;;13.40;4.95;;;;;;;;;;5018475;28;20402;-62
2021/03/30 06:15:06;;;;;;;11.20;4.38;;;;;;;;;;5022181;28;20150;-62
2021/03/30 06:17:41;;;;;;;12.07;4.60;;;;;;;;;;5021589;28;20072;-62
2021/03/30 06:20:10;;;;;;;15.02;4.30;;;;;;;;;;5021961;28;20048;-63
2021/03/30 06:22:48;;;;;;;10.82;3.70;;;;;;;;;;5021757;28;20060;-62
2021/03/30 06:25:35;;;;;;;17.10;3.92;;;;;;;;;;5017736;28;20046;-63
2021/03/30 06:28:16;;;;;;;14.18;3.90;;;;;;;;;;5018934;28;20144;-62
2021/03/30 06:30:57;;;;;;;24.60;4.85;;;;;;;;;;5018209;28;20711;-61
2021/03/30 06:33:25;;;;;;;21.00;4.88;;;;;;;;;;5021242;28;20073;-62
2021/03/30 06:35:52;;;;;;;11.82;5.00;;;;;;;;;;5020580;28;20180;-62
2021/03/30 06:38:21;;;;;;;14.20;5.05;;;;;;;;;;5020510;28;20132;-62
2021/03/30 06:40:50;;;;;;;18.73;5.68;;;;;;;;;;5021046;28;20057;-61
2021/03/30 06:46:22;;;;;;;18.75;4.90;;;;;;;;;;4951553;28;20102;-62
2021/03/30 06:48:49;;;;;;;16.02;4.63;;;;;;;;;;5008271;28;20847;-61
2021/03/30 06:51:18;;;;;;;13.55;5.43;;;;;;;;;;5020287;28;20403;-61
2021/03/30 06:53:46;;;;;;;9.07;4.65;;;;;;;;;;5020253;28;20037;-62
2021/03/30 06:56:14;;;;;;;11.77;4.72;;;;;;;;;;5021993;28;20049;-61
2021/03/30 06:58:58;;;;;;;11.50;3.80;;;;;;;;;;5021348;28;20057;-62
2021/03/30 07:01:27;;;;;;;11.63;4.38;;;;;;;;;;5021361;28;20053;-61
2021/03/30 07:03:55;;;;;;;11.90;4.43;;;;;;;;;;5021015;28;20056;-62
2021/03/30 07:06:24;;;;;;;11.85;4.43;;;;;;;;;;5007873;28;20045;-62
2021/03/30 07:08:53;;;;;;;7.32;3.60;;;;;;;;;;5020522;28;20060;-62
2021/03/30 07:11:21;;;;;;;9.00;3.80;;;;;;;;;;5020237;28;20100;-62
2021/03/30 07:13:49;;;;;;;14.63;3.92;;;;;;;;;;5019112;28;20153;-61
2021/03/30 07:16:20;;;;;;;12.65;4.60;;;;;;;;;;5020846;28;20068;-61
2021/03/30 07:18:49;;;;;;;7.88;4.47;;;;;;;;;;5017478;28;20304;-61
2021/03/30 07:21:22;;;;;;;11.90;4.32;;;;;;;;;;5020726;28;20050;-63
2021/03/30 07:23:54;;;;;;;7.05;4.10;;;;;;;;;;5020417;28;20537;-62
2021/03/30 07:26:23;;;;;;;7.72;4.40;;;;;;;;;;5014324;28;20556;-62
2021/03/30 07:28:51;;;;;;;13.95;4.40;;;;;;;;;;5019293;28;20309;-62
2021/03/30 07:31:26;;;;;;;10.60;4.30;;;;;;;;;;5021517;28;20045;-62
2021/03/30 07:33:57;;;;;;;11.25;4.20;;;;;;;;;;5017984;28;20160;-62
2021/03/30 07:36:27;;;;;;;9.30;4.50;;;;;;;;;;5023466;28;20109;-62
2021/03/30 07:39:00;;;;;;;13.98;4.35;;;;;;;;;;5021781;28;20041;-61
2021/03/30 07:41:30;;;;;;;16.80;5.63;;;;;;;;;;5020712;28;20520;-62
2021/03/30 07:44:01;;;;;;;15.15;5.10;;;;;;;;;;5021315;28;20375;-62
2021/03/30 07:46:31;;;;;;;11.02;5.22;;;;;;;;;;5013093;28;20050;-63
2021/03/30 07:48:59;;;;;;;18.00;5.40;;;;;;;;;;5022323;28;20064;-62
2021/03/30 07:51:34;;;;;;;18.45;5.63;;;;;;;;;;5022504;28;20132;-61
2021/03/30 07:54:10;;;;;;;17.45;5.40;;;;;;;;;;5020755;28;20501;-61
2021/03/30 07:57:06;;;;;;;17.77;5.60;;;;;;;;;;5019703;28;20119;-62
2021/03/30 07:59:55;;;;;;;16.73;6.33;;;;;;;;;;4977084;28;20618;-61
2021/03/30 08:02:27;;;;;;;18.65;5.80;;;;;;;;;;5018365;28;20053;-61
2021/03/30 08:05:06;;;;;;;13.75;5.72;;;;;;;;;;5024933;28;20059;-62
2021/03/30 08:07:50;;;;;;;20.63;6.30;;;;;;;;;;5021399;28;20388;-61
2021/03/30 08:10:26;;;;;;;25.65;5.80;;;;;;;;;;5013007;28;20151;-61
2021/03/30 08:13:21;;;;;;;22.42;5.20;;;;;;;;;;5026280;28;20042;-62
2021/03/30 08:15:50;;;;;;;21.80;5.15;;;;;;;;;;5026190;28;20511;-61
2021/03/30 08:18:19;;;;;;;20.75;5.35;;;;;;;;;;5004914;28;20056;-61
2021/03/30 08:20:57;;;;;;;10.02;5.32;;;;;;;;;;5012648;28;20050;-61
2021/03/30 08:23:27;;;;;;;13.68;5.05;;;;;;;;;;5024440;28;20572;-61
2021/03/30 08:26:16;;;;;;;12.52;4.30;;;;;;;;;;5026102;28;20057;-62
2021/03/30 08:28:58;;;;;;;12.48;4.90;;;;;;;;;;5013233;28;20363;-62
2021/03/30 08:31:28;;;;;;;18.13;5.05;;;;;;;;;;5018217;28;20104;-61
2021/03/30 08:33:58;;;;;;;13.02;4.88;;;;;;;;;;5017453;28;20045;-61
2021/03/30 08:36:29;;;;;;;14.93;4.95;;;;;;;;;;5024300;28;20493;-61
2021/03/30 08:38:59;;;;;;;14.82;5.45;;;;;;;;;;5024680;28;20050;-61
2021/03/30 08:41:50;;;;;;;14.02;5.80;;;;;;;;;;5025108;28;20160;-60
2021/03/30 08:44:20;;;;;;;12.40;4.75;;;;;;;;;;5006213;28;20085;-61
2021/03/30 08:46:49;;;;;;;16.30;5.18;;;;;;;;;;5024268;28;20045;-61
2021/03/30 08:49:23;;;;;;;11.82;5.93;;;;;;;;;;5010111;28;20053;-61
2021/03/30 08:51:52;;;;;;;18.42;5.47;;;;;;;;;;5023793;28;20360;-61
2021/03/30 08:54:24;;;;;;;11.88;4.50;;;;;;;;;;5024662;28;20229;-61
2021/03/30 08:56:59;;;;;;;11.15;4.45;;;;;;;;;;5020919;28;20049;-61
2021/03/30 08:59:29;;;;;;;12.07;4.70;;;;;;;;;;5022629;28;20061;-61
2021/03/30 09:02:02;;;;;;;13.05;4.78;;;;;;;;;;5023579;28;20080;-62
2021/03/30 09:04:33;;;;;;;7.78;4.32;;;;;;;;;;5024620;28;20064;-62
2021/03/30 09:07:01;;;;;;;8.27;4.50;;;;;;;;;;5011283;28;20669;-62
2021/03/30 09:09:34;;;;;;;6.30;3.83;;;;;;;;;;5023398;28;20061;-62
2021/03/30 09:12:05;;;;;;;11.65;3.78;;;;;;;;;;5024400;28;20413;-61
2021/03/30 09:14:34;;;;;;;9.10;3.88;;;;;;;;;;5024761;28;20719;-61
2021/03/30 09:17:08;;;;;;;9.45;3.92;;;;;;;;;;5024526;28;20072;-62
2021/03/30 09:19:41;;;;;;;9.18;4.50;;;;;;;;;;5027552;28;20124;-61
2021/03/30 09:22:13;;;;;;;8.10;3.70;;;;;;;;;;5025396;28;20053;-62
2021/03/30 09:24:55;;;;;;;7.28;3.75;;;;;;;;;;5025868;28;20047;-62
2021/03/30 09:27:23;;;;;;;10.63;4.25;;;;;;;;;;5021996;28;20269;-62
2021/03/30 09:29:54;;;;;;;7.93;3.92;;;;;;;;;;5015246;28;20049;-60
2021/03/30 09:32:23;;;;;;;7.00;4.15;;;;;;;;;;5022130;28;20129;-62
2021/03/30 09:34:51;;;;;;;7.80;4.70;;;;;;;;;;5021864;28;20573;-63
2021/03/30 09:37:19;;;;;;;11.52;4.88;;;;;;;;;;5023352;28;20103;-61
2021/03/30 09:39:49;;;;;;;8.95;4.60;;;;;;;;;;5024148;28;20045;-61
2021/03/30 09:42:18;;;;;;;9.98;4.75;;;;;;;;;;5022980;28;20045;-61
2021/03/30 09:44:46;;;;;;;9.63;3.80;;;;;;;;;;5024167;28;20049;-61
2021/03/30 09:47:16;;;;;;;6.53;3.95;;;;;;;;;;5012946;28;20056;-61
2021/03/30 09:49:47;;;;;;;7.32;4.10;;;;;;;;;;5023998;28;20132;-61
2021/03/30 09:52:16;;;;;;;10.57;4.47;;;;;;;;;;5022717;28;20049;-61
2021/03/30 09:54:44;;;;;;;7.70;3.75;;;;;;;;;;5022896;28;20558;-61
2021/03/30 09:57:12;;;;;;;9.50;4.03;;;;;;;;;;5023376;28;20280;-61
2021/03/30 09:59:44;;;;;;;14.00;4.97;;;;;;;;;;5019842;28;20046;-61
2021/03/30 10:02:13;;;;;;;11.57;4.20;;;;;;;;;;5024227;28;20365;-62
2021/03/30 10:04:42;;;;;;;14.02;4.70;;;;;;;;;;5020932;28;20068;-61
2021/03/30 10:07:18;;;;;;;8.05;4.75;;;;;;;;;;5014568;28;20664;-62
2021/03/30 10:10:04;;;;;;;9.68;4.95;;;;;;;;;;5023380;28;20061;-62
2021/03/30 10:12:33;;;;;;;8.50;5.13;;;;;;;;;;5023040;28;20384;-61
2021/03/30 10:15:01;;;;;;;6.90;5.22;;;;;;;;;;5024139;28;20068;-60
2021/03/30 10:17:30;;;;;;;7.53;5.38;;;;;;;;;;5022025;28;20056;-61
2021/03/30 10:19:59;;;;;;;12.13;5.15;;;;;;;;;;5017143;28;20128;-61
2021/03/30 10:22:30;;;;;;;8.77;5.00;;;;;;;;;;5019120;28;20038;-61
2021/03/30 10:25:13;;;;;;;7.72;5.32;;;;;;;;;;5015535;28;20063;-61
2021/03/30 10:27:49;;;;;;;10.15;5.45;;;;;;;;;;5021711;28;20061;-61
2021/03/30 10:30:19;;;;;;;11.77;6.45;;;;;;;;;;5020780;28;20045;-61
2021/03/30 10:32:54;;;;;;;8.70;5.50;;;;;;;;;;5020688;28;20384;-61
2021/03/30 10:35:24;;;;;;;9.15;5.80;;;;;;;;;;5022453;28;20053;-61
2021/03/30 10:37:52;;;;;;;8.60;4.90;;;;;;;;;;5023951;28;20457;-62
2021/03/30 10:40:20;;;;;;;8.73;5.70;;;;;;;;;;5017577;28;20049;-60
2021/03/30 10:42:48;;;;;;;11.65;5.75;;;;;;;;;;5016905;28;20379;-61
2021/03/30 10:45:17;;;;;;;9.48;5.40;;;;;;;;;;5021407;28;20060;-62
2021/03/30 10:47:48;;;;;;;13.35;6.20;;;;;;;;;;5022917;28;20076;-61
2021/03/30 10:50:18;;;;;;;10.30;5.82;;;;;;;;;;5024971;28;20073;-61
2021/03/30 10:52:48;;;;;;;11.32;6.40;;;;;;;;;;5024144;28;20057;-61
2021/03/30 10:55:18;;;;;;;23.05;8.80;;;;;;;;;;5025479;28;20042;-60
2021/03/30 10:57:46;;;;;;;15.90;7.20;;;;;;;;;;5021982;28;20107;-61
2021/03/30 11:00:18;;;;;;;9.35;5.75;;;;;;;;;;5018120;28;20049;-62
2021/03/30 11:02:46;;;;;;;10.70;7.20;;;;;;;;;;5019918;28;20148;-62
2021/03/30 11:05:15;;;;;;;11.68;6.90;;;;;;;;;;5020597;28;20073;-61
2021/03/30 11:07:43;;;;;;;11.25;6.60;;;;;;;;;;5023383;28;20509;-61
2021/03/30 11:10:16;;;;;;;12.18;6.40;;;;;;;;;;5020040;28;20079;-61
2021/03/30 11:12:47;;;;;;;14.65;7.32;;;;;;;;;;5023199;28;20041;-61
2021/03/30 11:15:15;;;;;;;13.98;7.22;;;;;;;;;;5021771;28;20155;-59
2021/03/30 11:17:42;;;;;;;12.52;6.90;;;;;;;;;;5022402;28;20071;-61
2021/03/30 11:20:12;;;;;;;11.93;7.50;;;;;;;;;;5019195;28;20049;-62
2021/03/30 11:22:43;;;;;;;13.65;7.85;;;;;;;;;;5015002;28;20046;-62
2021/03/30 11:25:13;;;;;;;13.68;7.00;;;;;;;;;;5022427;28;20085;-61
2021/03/30 11:27:43;;;;;;;9.93;6.63;;;;;;;;;;5019433;28;20069;-61
2021/03/30 11:30:14;;;;;;;13.13;6.60;;;;;;;;;;5022282;28;20144;-60
2021/03/30 11:32:46;;;;;;;12.27;6.97;;;;;;;;;;5021905;28;20768;-60
2021/03/30 11:35:16;;;;;;;11.95;6.03;;;;;;;;;;5017749;28;20057;-61
2021/03/30 11:37:50;;;;;;;17.70;6.63;;;;;;;;;;5017822;28;20104;-60
2021/03/30 11:40:19;;;;;;;14.45;6.43;;;;;;;;;;5020605;28;20699;-60
2021/03/30 11:42:47;;;;;;;10.70;6.95;;;;;;;;;;5028706;28;20053;-60
2021/03/30 11:45:16;;;;;;;10.00;6.07;;;;;;;;;;5026835;28;21233;-61
2021/03/30 11:47:44;;;;;;;10.30;6.38;;;;;;;;;;5027565;28;20523;-60
2021/03/30 11:50:12;;;;;;;10.70;6.15;;;;;;;;;;5028619;28;20053;-61
2021/03/30 11:52:40;;;;;;;16.00;6.75;;;;;;;;;;5024398;28;20058;-61
2021/03/30 11:55:10;;;;;;;12.00;5.93;;;;;;;;;;5027711;28;20560;-61
2021/03/30 11:57:38;;;;;;;11.98;6.45;;;;;;;;;;5029055;28;20046;-61
2021/03/30 12:00:07;;;;;;;12.57;6.88;;;;;;;;;;5030456;28;20489;-61
2021/03/30 12:02:49;;;;;;;15.05;6.82;;;;;;;;;;5021723;28;20405;-61
2021/03/30 12:05:19;;;;;;;10.30;6.68;;;;;;;;;;5019257;28;20057;-61
2021/03/30 12:07:47;;;;;;;10.25;7.20;;;;;;;;;;5014711;28;20667;-61
2021/03/30 12:10:21;;;;;;;10.32;5.90;;;;;;;;;;5020090;28;20401;-61
2021/03/30 12:12:50;;;;;;;15.25;6.60;;;;;;;;;;5026487;28;20481;-61
2021/03/30 12:15:18;;;;;;;14.80;5.82;;;;;;;;;;5029725;28;20049;-62
2021/03/30 12:17:47;;;;;;;12.50;5.78;;;;;;;;;;5026508;28;20471;-61
2021/03/30 12:20:16;;;;;;;13.20;7.28;;;;;;;;;;5012671;28;20197;-61
2021/03/30 12:22:44;;;;;;;11.07;6.68;;;;;;;;;;5025536;28;20049;-61
2021/03/30 12:25:13;;;;;;;11.35;6.47;;;;;;;;;;5023232;28;20077;-62
2021/03/30 12:27:41;;;;;;;10.75;6.55;;;;;;;;;;5025627;28;20057;-61
2021/03/30 12:30:10;;;;;;;12.30;6.43;;;;;;;;;;5023980;28;20583;-59
2021/03/30 12:32:39;;;;;;;10.77;5.95;;;;;;;;;;5016328;28;20045;-61
2021/03/30 12:35:08;;;;;;;10.85;5.50;;;;;;;;;;5018789;28;20469;-60
2021/03/30 12:37:36;;;;;;;11.45;6.32;;;;;;;;;;5026942;28;20073;-60
2021/03/30 12:40:04;;;;;;;9.10;6.35;;;;;;;;;;5027276;28;20080;-60
2021/03/30 12:42:32;;;;;;;11.68;6.43;;;;;;;;;;5027922;28;20441;-60
2021/03/30 12:45:00;;;;;;;9.38;5.72;;;;;;;;;;5025749;28;20051;-60
2021/03/30 12:47:29;;;;;;;12.10;6.72;;;;;;;;;;5022426;28;20719;-61
2021/03/30 12:49:56;;;;;;;12.10;7.07;;;;;;;;;;5020986;28;20081;-62
2021/03/30 12:52:25;;;;;;;13.65;7.35;;;;;;;;;;5019324;28;20088;-60
2021/03/30 12:54:55;;;;;;;13.57;7.75;;;;;;;;;;5025121;28;20045;-60
2021/03/30 12:57:23;;;;;;;16.27;7.75;;;;;;;;;;5025945;28;20045;-61
2021/03/30 12:59:52;;;;;;;15.32;7.43;;;;;;;;;;5025726;28;20052;-60
2021/03/30 13:02:20;;;;;;;12.85;6.93;;;;;;;;;;5020400;28;21167;-60
2021/03/30 13:04:48;;;;;;;11.93;6.93;;;;;;;;;;5014125;28;20634;-60
2021/03/30 13:07:17;;;;;;;15.43;7.38;;;;;;;;;;5024107;28;20049;-61
2021/03/30 13:09:47;;;;;;;12.88;7.05;;;;;;;;;;5025850;28;20049;-60
2021/03/30 13:12:16;;;;;;;12.32;7.03;;;;;;;;;;5015084;28;20160;-60
2021/03/30 13:14:46;;;;;;;12.70;6.90;;;;;;;;;;5027116;28;20213;-60
2021/03/30 13:17:14;;;;;;;16.85;7.80;;;;;;;;;;5023403;28;20077;-60
2021/03/30 13:19:41;;;;;;;14.63;7.68;;;;;;;;;;5018671;28;20045;-60
2021/03/30 13:22:15;;;;;;;11.13;6.93;;;;;;;;;;5020100;28;20256;-61
2021/03/30 13:24:44;;;;;;;12.93;6.97;;;;;;;;;;5023558;28;20056;-60
2021/03/30 13:27:12;;;;;;;15.52;7.88;;;;;;;;;;5020393;28;20128;-60
2021/03/30 13:29:41;;;;;;;10.93;6.93;;;;;;;;;;5026491;28;20057;-60
2021/03/30 13:32:09;;;;;;;15.60;7.93;;;;;;;;;;5026507;28;20037;-60
2021/03/30 13:34:37;;;;;;;11.65;7.00;;;;;;;;;;5025698;28;20100;-60
2021/03/30 13:37:05;;;;;;;10.85;6.63;;;;;;;;;;5027965;28;20055;-60
2021/03/30 13:39:34;;;;;;;11.27;7.00;;;;;;;;;;5015942;28;20060;-60
2021/03/30 13:42:04;;;;;;;10.50;7.07;;;;;;;;;;5018062;28;20462;-60
2021/03/30 13:44:32;;;;;;;13.18;7.18;;;;;;;;;;5024334;28;20042;-64
2021/03/30 13:47:01;;;;;;;11.90;7.03;;;;;;;;;;5024471;28;20061;-60
2021/03/30 13:49:30;;;;;;;8.70;5.70;;;;;;;;;;5025810;28;20150;-60
2021/03/30 13:51:58;;;;;;;9.30;6.13;;;;;;;;;;5023799;28;20400;-60
2021/03/30 13:54:26;;;;;;;9.65;5.72;;;;;;;;;;5025891;28;20053;-60
2021/03/30 13:56:55;;;;;;;10.40;6.55;;;;;;;;;;5024475;28;20119;-60
2021/03/30 13:59:23;;;;;;;11.50;5.95;;;;;;;;;;5023646;28;20056;-61
2021/03/30 14:01:52;;;;;;;8.75;5.88;;;;;;;;;;5017798;28;20061;-60
2021/03/30 14:04:21;;;;;;;12.35;6.90;;;;;;;;;;5015907;28;20132;-60
2021/03/30 14:06:51;;;;;;;11.95;6.65;;;;;;;;;;5010053;28;20132;-61
2021/03/30 14:09:21;;;;;;;11.05;7.10;;;;;;;;;;5014957;28;20455;-59
2021/03/30 14:11:52;;;;;;;10.32;5.78;;;;;;;;;;5014381;28;20057;-60
2021/03/30 14:14:25;;;;;;;13.88;7.38;;;;;;;;;;5020869;28;20462;-60
2021/03/30 14:16:56;;;;;;;14.00;7.80;;;;;;;;;;5015539;28;20155;-60
2021/03/30 14:19:28;;;;;;;10.55;6.88;;;;;;;;;;5022958;28;20056;-60
2021/03/30 14:21:58;;;;;;;13.00;6.97;;;;;;;;;;5027505;28;20060;-60
2021/03/30 14:24:38;;;;;;;11.65;6.88;;;;;;;;;;5024680;28;20057;-60
2021/03/30 14:27:06;;;;;;;12.85;6.22;;;;;;;;;;5025505;28;20049;-60
2021/03/30 14:29:53;;;;;;;12.80;5.88;;;;;;;;;;5020116;28;20045;-61
2021/03/30 14:32:22;;;;;;;11.05;5.78;;;;;;;;;;5022088;28;20049;-60
2021/03/30 14:34:53;;;;;;;13.15;5.93;;;;;;;;;;5022760;28;20128;-60
2021/03/30 14:37:23;;;;;;;13.75;6.40;;;;;;;;;;5021154;28;20061;-60
2021/03/30 14:39:52;;;;;;;9.23;6.30;;;;;;;;;;5024328;28;20060;-60
2021/03/30 14:42:22;;;;;;;9.63;6.03;;;;;;;;;;5026718;28;20045;-61
2021/03/30 14:45:18;;;;;;;14.55;7.18;;;;;;;;;;5023944;28;20041;-61
2021/03/30 14:54:04;;;;;;;10.75;6.20;;;;;;;;;;5022534;28;20041;-61
2021/03/30 14:56:36;;;;;;;13.45;7.72;;;;;;;;;;5017729;28;20345;-60
2021/03/30 14:59:34;;;;;;;12.80;7.13;;;;;;;;;;5016538;28;20403;-60